Time;durP1;ratioP1;P1;durP2;ratioP2;P2;SDS_P1;SDS_P2;PMS_P1;PMS_P2;Temp;Humidity;BMP_temperature;BMP_pressure;BME280_temperature;BME280_humidity;BME280_pressure;Samples;Min_cycle;Max_cycle;Signal;HPM_P1;HPM_P2
2023/05/09 00:00:48;;;;;;;2.67;2.03;;;;;;;;;;5070350;28;20446;-56
2023/05/09 00:03:14;;;;;;;2.72;2.00;;;;;;;;;;5070137;28;20865;-56
2023/05/09 00:05:40;;;;;;;3.10;2.20;;;;;;;;;;5070031;28;20388;-56
2023/05/09 00:08:08;;;;;;;4.22;2.30;;;;;;;;;;5070170;28;20465;-56
2023/05/09 00:10:34;;;;;;;3.30;2.10;;;;;;;;;;5070664;28;20396;-56
2023/05/09 00:13:00;;;;;;;2.40;2.13;;;;;;;;;;5066821;28;20412;-57
2023/05/09 00:15:27;;;;;;;2.92;2.10;;;;;;;;;;5070281;28;20469;-57
2023/05/09 00:17:53;;;;;;;2.75;2.13;;;;;;;;;;5070246;28;20407;-55
2023/05/09 00:20:20;;;;;;;3.40;2.40;;;;;;;;;;5070326;28;20395;-54
2023/05/09 00:22:46;;;;;;;2.45;2.08;;;;;;;;;;5070245;28;20395;-56
2023/05/09 00:25:14;;;;;;;3.50;2.30;;;;;;;;;;5070108;28;20464;-55
2023/05/09 00:27:39;;;;;;;3.93;2.33;;;;;;;;;;5070301;28;20483;-55
2023/05/09 00:30:06;;;;;;;3.40;2.20;;;;;;;;;;5070244;28;20404;-55
2023/05/09 00:32:33;;;;;;;3.17;2.20;;;;;;;;;;5070236;28;20801;-55
2023/05/09 00:34:59;;;;;;;3.95;2.30;;;;;;;;;;5069721;28;20423;-54
2023/05/09 00:37:25;;;;;;;5.80;2.60;;;;;;;;;;5070139;28;20414;-54
2023/05/09 00:39:51;;;;;;;3.63;2.10;;;;;;;;;;5070254;28;20485;-54
2023/05/09 00:42:18;;;;;;;3.23;2.33;;;;;;;;;;5070128;28;20878;-54
2023/05/09 00:44:44;;;;;;;2.72;2.10;;;;;;;;;;5070123;28;20430;-54
2023/05/09 00:47:10;;;;;;;4.20;2.60;;;;;;;;;;5069868;28;20750;-54
2023/05/09 00:49:36;;;;;;;3.47;2.40;;;;;;;;;;5070216;28;20457;-54
2023/05/09 00:52:03;;;;;;;3.40;2.42;;;;;;;;;;5069899;28;20501;-55
2023/05/09 00:54:30;;;;;;;3.17;2.43;;;;;;;;;;5069970;28;20882;-54
2023/05/09 00:56:56;;;;;;;2.50;2.28;;;;;;;;;;5069748;28;20816;-55
2023/05/09 00:59:23;;;;;;;2.38;2.13;;;;;;;;;;5070022;28;20869;-54
2023/05/09 01:01:49;;;;;;;2.92;2.40;;;;;;;;;;5069900;28;20896;-54
2023/05/09 01:04:16;;;;;;;3.80;2.30;;;;;;;;;;5069589;28;20747;-55
2023/05/09 01:06:48;;;;;;;3.90;2.63;;;;;;;;;;5069821;28;20521;-55
2023/05/09 01:09:18;;;;;;;3.33;2.70;;;;;;;;;;5069775;28;20550;-55
2023/05/09 01:11:48;;;;;;;3.10;2.53;;;;;;;;;;5070932;28;21029;-54
2023/05/09 01:14:17;;;;;;;4.00;2.65;;;;;;;;;;5072490;28;20818;-54
2023/05/09 01:16:47;;;;;;;2.88;2.40;;;;;;;;;;5072417;28;20823;-54
2023/05/09 01:19:21;;;;;;;4.95;2.47;;;;;;;;;;5072494;28;20455;-54
2023/05/09 01:21:48;;;;;;;3.50;2.63;;;;;;;;;;5072770;28;20443;-55
2023/05/09 01:24:25;;;;;;;3.45;2.53;;;;;;;;;;5073174;28;20407;-54
2023/05/09 01:26:58;;;;;;;2.78;2.55;;;;;;;;;;5073358;28;20400;-54
2023/05/09 01:29:32;;;;;;;2.85;2.50;;;;;;;;;;5072630;28;20470;-54
2023/05/09 01:31:59;;;;;;;3.22;2.50;;;;;;;;;;5072277;28;20399;-54
2023/05/09 01:34:26;;;;;;;2.38;2.10;;;;;;;;;;5071959;28;20498;-54
2023/05/09 01:36:55;;;;;;;3.90;2.53;;;;;;;;;;5072157;28;20453;-54
2023/05/09 01:39:23;;;;;;;4.20;2.50;;;;;;;;;;5072216;28;20514;-54
2023/05/09 01:41:50;;;;;;;3.42;2.55;;;;;;;;;;5073114;28;20411;-54
2023/05/09 01:44:16;;;;;;;3.78;2.50;;;;;;;;;;5073154;28;20426;-54
2023/05/09 01:46:44;;;;;;;4.00;2.55;;;;;;;;;;5072025;28;20443;-54
2023/05/09 01:49:11;;;;;;;3.47;2.70;;;;;;;;;;5072087;28;20415;-54
2023/05/09 01:51:37;;;;;;;4.97;2.60;;;;;;;;;;5072957;28;20399;-55
2023/05/09 01:54:04;;;;;;;3.75;2.80;;;;;;;;;;5073125;28;20419;-54
2023/05/09 01:56:31;;;;;;;3.50;2.40;;;;;;;;;;5072594;28;20898;-54
2023/05/09 01:58:57;;;;;;;3.25;2.47;;;;;;;;;;5072640;28;20911;-54
2023/05/09 02:01:23;;;;;;;2.97;2.58;;;;;;;;;;5072684;28;20400;-54
2023/05/09 02:03:51;;;;;;;3.60;2.55;;;;;;;;;;5072729;28;20476;-54
2023/05/09 02:06:18;;;;;;;3.20;2.40;;;;;;;;;;5072586;28;20399;-54
2023/05/09 02:08:45;;;;;;;2.65;2.42;;;;;;;;;;5072572;28;20486;-54
2023/05/09 02:11:11;;;;;;;2.63;2.38;;;;;;;;;;5072389;28;20430;-54
2023/05/09 02:13:37;;;;;;;4.38;2.60;;;;;;;;;;5072698;28;20395;-54
2023/05/09 02:16:03;;;;;;;2.92;2.53;;;;;;;;;;5072392;28;20426;-55
2023/05/09 02:18:31;;;;;;;4.03;2.50;;;;;;;;;;5072307;28;20399;-54
2023/05/09 02:20:58;;;;;;;3.20;2.50;;;;;;;;;;5072222;28;20453;-54
2023/05/09 02:23:24;;;;;;;3.47;2.40;;;;;;;;;;5071956;28;20423;-54
2023/05/09 02:25:52;;;;;;;3.10;2.60;;;;;;;;;;5072403;28;20874;-54
2023/05/09 02:28:19;;;;;;;3.58;2.40;;;;;;;;;;5072236;28;20438;-54
2023/05/09 02:30:46;;;;;;;2.92;2.50;;;;;;;;;;5072209;28;20400;-54
2023/05/09 02:33:13;;;;;;;3.63;2.50;;;;;;;;;;5071785;28;20416;-54
2023/05/09 02:35:41;;;;;;;3.17;2.70;;;;;;;;;;5071980;28;20423;-54
2023/05/09 02:38:08;;;;;;;2.75;2.50;;;;;;;;;;5072046;28;20423;-54
2023/05/09 02:40:35;;;;;;;3.60;2.60;;;;;;;;;;5071992;28;20531;-54
2023/05/09 02:43:01;;;;;;;4.00;2.50;;;;;;;;;;5071903;28;20399;-54
2023/05/09 02:45:27;;;;;;;2.90;2.60;;;;;;;;;;5071932;28;20400;-55
2023/05/09 02:47:53;;;;;;;3.40;2.90;;;;;;;;;;5071820;28;20758;-55
2023/05/09 02:50:19;;;;;;;3.10;2.70;;;;;;;;;;5071832;28;20916;-55
2023/05/09 02:52:46;;;;;;;3.13;2.75;;;;;;;;;;5071770;28;20387;-55
2023/05/09 02:55:13;;;;;;;4.20;2.95;;;;;;;;;;5071401;28;20750;-55
2023/05/09 02:57:39;;;;;;;3.73;2.80;;;;;;;;;;5071758;28;20463;-55
2023/05/09 03:00:09;;;;;;;4.00;2.70;;;;;;;;;;5071642;28;20499;-55
2023/05/09 03:02:35;;;;;;;3.45;2.80;;;;;;;;;;5071842;28;20406;-55
2023/05/09 03:05:01;;;;;;;4.75;2.88;;;;;;;;;;5071453;28;20479;-54
2023/05/09 03:07:28;;;;;;;3.22;2.70;;;;;;;;;;5069495;28;20810;-54
2023/05/09 03:09:54;;;;;;;4.72;2.70;;;;;;;;;;5071489;28;20402;-55
2023/05/09 03:12:21;;;;;;;3.33;2.65;;;;;;;;;;5071357;28;20470;-54
2023/05/09 03:14:47;;;;;;;2.70;2.40;;;;;;;;;;5071294;28;20829;-54
2023/05/09 03:17:20;;;;;;;3.78;2.50;;;;;;;;;;5071193;28;20410;-55
2023/05/09 03:19:46;;;;;;;5.67;2.87;;;;;;;;;;5071274;28;20428;-54
2023/05/09 03:22:11;;;;;;;3.17;2.50;;;;;;;;;;5071124;28;20651;-54
2023/05/09 03:24:37;;;;;;;3.50;3.00;;;;;;;;;;5071246;28;20461;-55
2023/05/09 03:27:03;;;;;;;3.90;2.60;;;;;;;;;;5071021;28;20475;-54
2023/05/09 03:29:31;;;;;;;4.30;2.80;;;;;;;;;;5070940;28;20445;-55
2023/05/09 03:31:57;;;;;;;3.90;2.70;;;;;;;;;;5070899;28;20431;-54
2023/05/09 03:34:23;;;;;;;3.63;2.75;;;;;;;;;;5070135;28;20412;-54
2023/05/09 03:36:49;;;;;;;3.85;2.75;;;;;;;;;;5070990;28;20448;-55
2023/05/09 03:39:15;;;;;;;3.78;2.60;;;;;;;;;;5070686;28;20442;-54
2023/05/09 03:41:43;;;;;;;4.43;2.90;;;;;;;;;;5070729;28;20404;-54
2023/05/09 03:44:09;;;;;;;3.78;2.90;;;;;;;;;;5070310;28;20482;-53
2023/05/09 03:46:36;;;;;;;3.40;2.80;;;;;;;;;;5070661;28;20400;-53
2023/05/09 03:49:03;;;;;;;4.32;2.90;;;;;;;;;;5070588;28;20801;-55
2023/05/09 03:51:29;;;;;;;4.20;2.90;;;;;;;;;;5070374;28;20406;-53
2023/05/09 03:53:55;;;;;;;4.20;3.05;;;;;;;;;;5070515;28;20404;-53
2023/05/09 03:56:21;;;;;;;3.50;2.90;;;;;;;;;;5070609;28;20782;-53
2023/05/09 03:58:47;;;;;;;3.88;2.90;;;;;;;;;;5070614;28;20430;-53
2023/05/09 04:01:13;;;;;;;3.35;2.97;;;;;;;;;;5070412;28;20454;-53
2023/05/09 04:03:41;;;;;;;5.07;3.10;;;;;;;;;;5070244;28;20747;-53
2023/05/09 04:06:07;;;;;;;3.38;2.70;;;;;;;;;;5070572;28;20411;-53
2023/05/09 04:08:33;;;;;;;5.00;3.28;;;;;;;;;;5070332;28;20431;-53
2023/05/09 04:10:59;;;;;;;3.25;2.95;;;;;;;;;;5070366;28;20890;-53
2023/05/09 04:13:25;;;;;;;3.60;2.93;;;;;;;;;;5070101;28;20835;-53
2023/05/09 04:15:51;;;;;;;4.00;3.20;;;;;;;;;;5070430;28;20416;-53
2023/05/09 04:18:17;;;;;;;5.07;3.37;;;;;;;;;;5070511;28;20777;-53
2023/05/09 04:20:45;;;;;;;4.40;3.40;;;;;;;;;;5070192;28;20396;-53
2023/05/09 04:23:11;;;;;;;4.25;3.30;;;;;;;;;;5070126;28;20404;-53
2023/05/09 04:25:37;;;;;;;4.35;3.53;;;;;;;;;;5070078;28;20419;-53
2023/05/09 04:28:03;;;;;;;4.95;3.40;;;;;;;;;;5070299;28;20396;-53
2023/05/09 04:30:29;;;;;;;4.03;3.42;;;;;;;;;;5069902;28;20486;-53
2023/05/09 04:32:55;;;;;;;5.63;3.40;;;;;;;;;;5069941;28;20827;-53
2023/05/09 04:35:21;;;;;;;3.42;3.10;;;;;;;;;;5069752;28;20758;-53
2023/05/09 04:37:48;;;;;;;4.43;3.42;;;;;;;;;;5070125;28;20391;-53
2023/05/09 04:40:14;;;;;;;4.17;3.30;;;;;;;;;;5069909;28;20498;-53
2023/05/09 04:42:41;;;;;;;4.13;3.35;;;;;;;;;;5070073;28;20423;-53
2023/05/09 04:45:08;;;;;;;4.70;3.25;;;;;;;;;;5070085;28;20406;-53
2023/05/09 04:47:34;;;;;;;3.58;3.28;;;;;;;;;;5072986;28;20494;-53
2023/05/09 04:50:00;;;;;;;3.90;3.50;;;;;;;;;;5073988;28;20427;-53
2023/05/09 04:52:26;;;;;;;4.00;3.60;;;;;;;;;;5074048;28;20391;-53
2023/05/09 04:54:54;;;;;;;6.07;3.72;;;;;;;;;;5074104;28;20477;-53
2023/05/09 04:57:20;;;;;;;3.85;3.42;;;;;;;;;;5073905;28;20419;-54
2023/05/09 04:59:46;;;;;;;4.75;3.45;;;;;;;;;;5073939;28;20399;-53
2023/05/09 05:02:12;;;;;;;4.63;3.43;;;;;;;;;;5073855;28;20504;-53
2023/05/09 05:04:38;;;;;;;3.67;3.30;;;;;;;;;;5073580;28;20832;-54
2023/05/09 05:07:04;;;;;;;4.07;3.40;;;;;;;;;;5073847;28;20396;-54
2023/05/09 05:09:30;;;;;;;3.58;3.10;;;;;;;;;;5073503;28;20414;-53
2023/05/09 05:11:57;;;;;;;4.77;3.60;;;;;;;;;;5073526;28;20395;-53
2023/05/09 05:14:23;;;;;;;5.43;3.78;;;;;;;;;;5073096;28;20766;-53
2023/05/09 05:16:49;;;;;;;3.60;3.30;;;;;;;;;;5073487;28;20416;-54
2023/05/09 05:19:15;;;;;;;4.15;3.13;;;;;;;;;;5073251;28;20407;-53
2023/05/09 05:21:41;;;;;;;3.88;3.40;;;;;;;;;;5073207;28;20407;-53
2023/05/09 05:24:07;;;;;;;4.10;3.30;;;;;;;;;;5073512;28;20414;-54
2023/05/09 05:26:33;;;;;;;6.85;3.50;;;;;;;;;;5073126;28;20445;-53
2023/05/09 05:29:00;;;;;;;5.20;3.70;;;;;;;;;;5073244;28;20399;-54
2023/05/09 05:31:26;;;;;;;4.20;3.60;;;;;;;;;;5073137;28;20400;-53
2023/05/09 05:33:52;;;;;;;5.30;3.42;;;;;;;;;;5073003;28;20486;-54
2023/05/09 05:36:18;;;;;;;5.72;3.55;;;;;;;;;;5072955;28;20848;-54
2023/05/09 05:38:44;;;;;;;5.10;3.40;;;;;;;;;;5072946;28;20408;-54
2023/05/09 05:41:10;;;;;;;5.97;3.35;;;;;;;;;;5073067;28;20408;-54
2023/05/09 05:43:36;;;;;;;5.50;3.90;;;;;;;;;;5073059;28;20409;-54
2023/05/09 05:46:04;;;;;;;5.10;3.65;;;;;;;;;;5073003;28;20421;-54
2023/05/09 05:48:30;;;;;;;3.53;3.10;;;;;;;;;;5072710;28;20403;-53
2023/05/09 05:50:57;;;;;;;4.20;3.60;;;;;;;;;;5072689;28;20762;-54
2023/05/09 05:53:23;;;;;;;4.00;3.58;;;;;;;;;;5072750;28;20438;-54
2023/05/09 05:55:49;;;;;;;3.65;3.35;;;;;;;;;;5072913;28;20846;-54
2023/05/09 05:58:15;;;;;;;5.57;3.47;;;;;;;;;;5072315;28;20396;-53
2023/05/09 06:00:41;;;;;;;4.07;3.42;;;;;;;;;;5072555;28;20430;-54
2023/05/09 06:03:12;;;;;;;4.80;3.60;;;;;;;;;;5072675;28;20435;-54
2023/05/09 06:05:40;;;;;;;6.40;3.60;;;;;;;;;;5072564;28;20410;-54
2023/05/09 06:08:06;;;;;;;6.33;3.97;;;;;;;;;;5072729;28;20404;-53
2023/05/09 06:10:32;;;;;;;4.00;3.58;;;;;;;;;;5072392;28;20439;-53
2023/05/09 06:12:58;;;;;;;5.60;3.60;;;;;;;;;;5072152;28;20407;-54
2023/05/09 06:15:24;;;;;;;4.38;3.78;;;;;;;;;;5072042;28;20926;-54
2023/05/09 06:17:50;;;;;;;4.85;3.60;;;;;;;;;;5072402;28;20457;-54
2023/05/09 06:20:18;;;;;;;4.22;3.70;;;;;;;;;;5072375;28;20400;-54
2023/05/09 06:22:44;;;;;;;5.40;3.78;;;;;;;;;;5072350;28;20906;-53
2023/05/09 06:25:10;;;;;;;5.35;3.50;;;;;;;;;;5072048;28;20406;-54
2023/05/09 06:27:36;;;;;;;4.80;3.70;;;;;;;;;;5072215;28;20478;-54
2023/05/09 06:30:02;;;;;;;4.45;3.60;;;;;;;;;;5072179;28;20399;-53
2023/05/09 06:32:28;;;;;;;4.97;3.70;;;;;;;;;;5071938;28;20933;-53
2023/05/09 06:34:54;;;;;;;4.72;3.75;;;;;;;;;;5071931;28;20415;-53
2023/05/09 06:37:21;;;;;;;6.17;3.67;;;;;;;;;;5072159;28;20511;-53
2023/05/09 06:39:49;;;;;;;3.90;3.50;;;;;;;;;;5071948;28;20421;-53
2023/05/09 06:42:15;;;;;;;4.35;3.63;;;;;;;;;;5071892;28;20497;-54
2023/05/09 06:44:42;;;;;;;4.43;3.65;;;;;;;;;;5071419;28;20418;-53
2023/05/09 06:47:08;;;;;;;5.10;3.78;;;;;;;;;;5071797;28;20412;-53
2023/05/09 06:49:34;;;;;;;4.82;3.65;;;;;;;;;;5071858;28;20403;-53
2023/05/09 06:52:00;;;;;;;4.00;3.40;;;;;;;;;;5071761;28;20407;-53
2023/05/09 06:54:27;;;;;;;5.88;3.72;;;;;;;;;;5071992;28;20483;-53
2023/05/09 06:56:53;;;;;;;6.68;4.10;;;;;;;;;;5071500;28;20431;-53
2023/05/09 06:59:19;;;;;;;5.20;3.60;;;;;;;;;;5071640;28;20403;-53
2023/05/09 07:01:45;;;;;;;4.63;3.83;;;;;;;;;;5071374;28;20452;-53
2023/05/09 07:04:11;;;;;;;5.40;3.85;;;;;;;;;;5071385;28;20483;-53
2023/05/09 07:06:37;;;;;;;5.65;3.78;;;;;;;;;;5071429;28;20449;-53
2023/05/09 07:09:03;;;;;;;4.55;3.83;;;;;;;;;;5070578;28;20874;-52
2023/05/09 07:11:35;;;;;;;4.50;3.92;;;;;;;;;;5071300;28;20423;-52
2023/05/09 07:14:01;;;;;;;4.55;3.75;;;;;;;;;;5071224;28;20440;-54
2023/05/09 07:16:28;;;;;;;4.75;3.88;;;;;;;;;;5071178;28;20404;-53
2023/05/09 07:18:54;;;;;;;5.60;4.10;;;;;;;;;;5071074;28;20396;-53
2023/05/09 07:21:20;;;;;;;5.43;3.90;;;;;;;;;;5071234;28;20498;-53
2023/05/09 07:23:46;;;;;;;4.32;3.70;;;;;;;;;;5070960;28;20479;-53
2023/05/09 07:26:12;;;;;;;6.30;3.75;;;;;;;;;;5070993;28;20470;-54
2023/05/09 07:28:39;;;;;;;7.47;4.13;;;;;;;;;;5070913;28;20413;-53
2023/05/09 07:31:05;;;;;;;7.30;4.37;;;;;;;;;;5071081;28;20773;-54
2023/05/09 07:33:32;;;;;;;4.88;3.80;;;;;;;;;;5070617;28;20415;-54
2023/05/09 07:35:58;;;;;;;5.10;3.90;;;;;;;;;;5070627;28;20437;-54
2023/05/09 07:38:25;;;;;;;4.05;3.60;;;;;;;;;;5070786;28;20407;-54
2023/05/09 07:40:52;;;;;;;4.88;3.58;;;;;;;;;;5070689;28;20396;-54
2023/05/09 07:43:18;;;;;;;3.80;3.30;;;;;;;;;;5070617;28;20411;-54
2023/05/09 07:45:45;;;;;;;4.37;3.30;;;;;;;;;;5070480;28;20743;-54
2023/05/09 07:48:11;;;;;;;5.07;3.60;;;;;;;;;;5071779;28;20206;-54
2023/05/09 07:50:37;;;;;;;4.40;3.53;;;;;;;;;;5070535;28;20450;-54
2023/05/09 07:53:03;;;;;;;5.20;3.70;;;;;;;;;;5070779;28;20702;-54
2023/05/09 07:55:29;;;;;;;4.18;3.72;;;;;;;;;;5070233;28;20878;-54
2023/05/09 07:57:55;;;;;;;5.05;4.40;;;;;;;;;;5070334;28;20402;-54
2023/05/09 08:00:22;;;;;;;5.07;3.92;;;;;;;;;;5070524;28;20391;-54
2023/05/09 08:02:49;;;;;;;5.70;3.80;;;;;;;;;;5070401;28;20411;-54
2023/05/09 08:05:15;;;;;;;4.77;4.00;;;;;;;;;;5071651;28;20223;-55
2023/05/09 08:07:41;;;;;;;4.60;3.93;;;;;;;;;;5071455;28;20550;-55
2023/05/09 08:10:08;;;;;;;5.43;4.17;;;;;;;;;;5071614;28;20234;-57
2023/05/09 08:12:34;;;;;;;4.20;3.80;;;;;;;;;;5071557;28;20214;-55
2023/05/09 08:15:00;;;;;;;6.80;4.30;;;;;;;;;;5071499;28;20207;-56
2023/05/09 08:17:26;;;;;;;4.33;3.73;;;;;;;;;;5071403;28;20316;-54
2023/05/09 08:19:54;;;;;;;5.10;4.60;;;;;;;;;;5071140;28;20289;-56
2023/05/09 08:22:20;;;;;;;4.90;3.90;;;;;;;;;;5071855;28;20210;-56
2023/05/09 08:24:46;;;;;;;5.80;4.23;;;;;;;;;;5071464;28;20256;-56
2023/05/09 08:27:12;;;;;;;4.40;4.00;;;;;;;;;;5069531;28;20202;-56
2023/05/09 08:29:38;;;;;;;5.23;4.43;;;;;;;;;;5069977;28;20274;-56
2023/05/09 08:32:04;;;;;;;7.43;5.00;;;;;;;;;;5070135;28;20737;-56
2023/05/09 08:34:33;;;;;;;5.10;4.60;;;;;;;;;;5069564;28;20251;-56
2023/05/09 08:37:00;;;;;;;8.77;4.70;;;;;;;;;;5069621;28;20232;-56
2023/05/09 08:39:26;;;;;;;5.97;5.23;;;;;;;;;;5069654;28;20199;-56
2023/05/09 08:41:53;;;;;;;5.70;4.70;;;;;;;;;;5071378;28;20245;-56
2023/05/09 08:44:21;;;;;;;4.87;4.37;;;;;;;;;;5071470;28;20749;-56
2023/05/09 08:46:48;;;;;;;6.73;4.83;;;;;;;;;;5071423;28;20192;-56
2023/05/09 08:49:14;;;;;;;5.63;4.70;;;;;;;;;;5071428;28;20210;-56
2023/05/09 08:51:40;;;;;;;5.30;4.80;;;;;;;;;;5071249;28;20285;-56
2023/05/09 08:54:08;;;;;;;5.73;5.17;;;;;;;;;;5071416;28;20667;-56
2023/05/09 08:56:34;;;;;;;4.80;4.40;;;;;;;;;;5071288;28;20234;-56
2023/05/09 08:59:00;;;;;;;8.33;4.93;;;;;;;;;;5070884;28;20278;-56
2023/05/09 09:01:27;;;;;;;5.73;4.67;;;;;;;;;;5071259;28;20636;-57
2023/05/09 09:03:53;;;;;;;5.50;5.00;;;;;;;;;;5071106;28;20302;-56
2023/05/09 09:06:20;;;;;;;7.20;4.80;;;;;;;;;;5071205;28;20573;-56
2023/05/09 09:08:47;;;;;;;5.87;4.50;;;;;;;;;;5070844;28;20206;-57
2023/05/09 09:11:15;;;;;;;5.53;4.70;;;;;;;;;;5071165;28;20656;-57
2023/05/09 09:13:43;;;;;;;6.10;5.50;;;;;;;;;;5071116;28;20206;-57
2023/05/09 09:16:10;;;;;;;5.63;4.87;;;;;;;;;;5071229;28;20277;-57
2023/05/09 09:18:36;;;;;;;5.47;5.00;;;;;;;;;;5071191;28;20195;-57
2023/05/09 09:21:05;;;;;;;5.40;4.73;;;;;;;;;;5071207;28;20199;-60
2023/05/09 09:23:32;;;;;;;5.33;4.40;;;;;;;;;;5070994;28;20255;-57
2023/05/09 09:25:58;;;;;;;4.93;4.27;;;;;;;;;;5070927;28;20690;-57
2023/05/09 09:28:26;;;;;;;5.30;4.80;;;;;;;;;;5070880;28;20206;-57
2023/05/09 09:30:52;;;;;;;5.10;4.40;;;;;;;;;;5071004;28;20191;-57
2023/05/09 09:33:19;;;;;;;7.70;4.87;;;;;;;;;;5072999;28;20601;-57
2023/05/09 09:35:45;;;;;;;6.83;4.50;;;;;;;;;;5074214;28;20225;-57
2023/05/09 09:38:11;;;;;;;6.10;4.60;;;;;;;;;;5074186;28;20286;-57
2023/05/09 09:40:39;;;;;;;5.37;4.83;;;;;;;;;;5074338;28;20291;-57
2023/05/09 09:43:06;;;;;;;6.37;5.30;;;;;;;;;;5074396;28;20203;-58
2023/05/09 09:45:35;;;;;;;6.30;5.30;;;;;;;;;;5074281;28;20199;-56
2023/05/09 09:48:05;;;;;;;5.50;4.50;;;;;;;;;;5072270;28;20631;-56
2023/05/09 09:50:31;;;;;;;5.53;5.03;;;;;;;;;;5073750;28;20203;-56
2023/05/09 09:52:59;;;;;;;6.80;5.30;;;;;;;;;;5073806;28;20207;-56
2023/05/09 09:55:25;;;;;;;5.57;5.07;;;;;;;;;;5073703;28;20632;-56
2023/05/09 09:57:51;;;;;;;4.90;4.50;;;;;;;;;;5073876;28;20231;-56
2023/05/09 10:00:18;;;;;;;9.63;4.90;;;;;;;;;;5073712;28;20246;-55
2023/05/09 10:02:50;;;;;;;5.70;4.80;;;;;;;;;;5073493;28;20627;-56
2023/05/09 10:05:20;;;;;;;5.47;4.97;;;;;;;;;;5072333;28;20484;-56
2023/05/09 10:07:49;;;;;;;6.50;5.20;;;;;;;;;;5073484;28;20278;-56
2023/05/09 10:10:15;;;;;;;7.50;5.07;;;;;;;;;;5072536;28;20414;-56
2023/05/09 10:12:42;;;;;;;7.17;5.00;;;;;;;;;;5073473;28;20199;-57
2023/05/09 10:15:10;;;;;;;5.53;5.03;;;;;;;;;;5072157;28;20438;-56
2023/05/09 10:17:36;;;;;;;7.55;5.43;;;;;;;;;;5072314;28;20415;-56
2023/05/09 10:20:04;;;;;;;5.05;4.57;;;;;;;;;;5072303;28;20774;-56
2023/05/09 10:22:32;;;;;;;5.50;4.90;;;;;;;;;;5072380;28;20807;-56
2023/05/09 10:25:01;;;;;;;5.60;4.90;;;;;;;;;;5071985;28;20438;-56
2023/05/09 10:27:29;;;;;;;5.55;5.05;;;;;;;;;;5072056;28;20399;-56
2023/05/09 10:30:00;;;;;;;5.88;5.25;;;;;;;;;;5071926;28;20407;-56
2023/05/09 10:32:31;;;;;;;7.70;4.72;;;;;;;;;;5072365;28;20433;-56
2023/05/09 10:35:00;;;;;;;5.38;4.90;;;;;;;;;;5072005;28;20761;-56
2023/05/09 10:37:28;;;;;;;8.02;4.40;;;;;;;;;;5071703;28;20422;-56
2023/05/09 10:39:54;;;;;;;6.35;4.68;;;;;;;;;;5071517;28;20861;-56
2023/05/09 10:42:22;;;;;;;4.80;4.40;;;;;;;;;;5072181;28;20478;-56
2023/05/09 10:44:49;;;;;;;5.63;5.10;;;;;;;;;;5072058;28;20491;-56
2023/05/09 10:47:15;;;;;;;5.97;5.27;;;;;;;;;;5072050;28;20483;-57
2023/05/09 10:49:42;;;;;;;6.30;5.80;;;;;;;;;;5071970;28;20751;-56
2023/05/09 10:52:08;;;;;;;7.78;5.63;;;;;;;;;;5072068;28;20450;-56
2023/05/09 10:54:36;;;;;;;6.00;5.40;;;;;;;;;;5072000;28;20399;-57
2023/05/09 10:57:02;;;;;;;5.57;5.07;;;;;;;;;;5071613;28;20434;-56
2023/05/09 10:59:32;;;;;;;5.60;5.00;;;;;;;;;;5071843;28;20435;-57
2023/05/09 11:01:59;;;;;;;6.40;5.25;;;;;;;;;;5071729;28;20690;-57
2023/05/09 11:04:25;;;;;;;5.63;5.13;;;;;;;;;;5071797;28;20461;-57
2023/05/09 11:06:52;;;;;;;5.72;5.13;;;;;;;;;;5071712;28;20825;-57
2023/05/09 11:09:28;;;;;;;5.63;5.20;;;;;;;;;;5071703;28;20400;-57
2023/05/09 11:11:56;;;;;;;5.88;5.28;;;;;;;;;;5071563;28;20403;-57
2023/05/09 11:14:32;;;;;;;5.70;5.20;;;;;;;;;;5071738;28;20427;-57
2023/05/09 11:16:58;;;;;;;5.43;5.03;;;;;;;;;;5071291;28;20459;-57
2023/05/09 11:19:35;;;;;;;5.60;5.00;;;;;;;;;;5071459;28;20392;-57
2023/05/09 11:22:02;;;;;;;5.78;5.22;;;;;;;;;;5071373;28;20395;-56
2023/05/09 11:24:29;;;;;;;5.95;5.00;;;;;;;;;;5071302;28;20948;-56
2023/05/09 11:26:57;;;;;;;6.13;5.50;;;;;;;;;;5070835;28;20823;-57
2023/05/09 11:29:26;;;;;;;5.72;5.13;;;;;;;;;;5071322;28;20506;-56
2023/05/09 11:32:04;;;;;;;5.40;4.90;;;;;;;;;;5071053;28;20950;-57
2023/05/09 11:34:30;;;;;;;6.20;5.30;;;;;;;;;;5071091;28;20419;-57
2023/05/09 11:37:07;;;;;;;5.82;5.22;;;;;;;;;;5070796;28;20824;-57
2023/05/09 11:39:33;;;;;;;5.22;4.65;;;;;;;;;;5070958;28;20905;-57
2023/05/09 11:42:00;;;;;;;5.20;4.70;;;;;;;;;;5070817;28;20427;-57
2023/05/09 11:44:29;;;;;;;5.70;5.20;;;;;;;;;;5070906;28;20422;-57
2023/05/09 11:46:57;;;;;;;6.18;4.82;;;;;;;;;;5070824;28;20396;-57
2023/05/09 11:49:23;;;;;;;4.83;4.43;;;;;;;;;;5070939;28;20459;-56
2023/05/09 11:51:49;;;;;;;6.05;4.80;;;;;;;;;;5071014;28;20404;-57
2023/05/09 11:54:15;;;;;;;5.78;4.68;;;;;;;;;;5070625;28;20908;-58
2023/05/09 11:56:41;;;;;;;5.78;5.00;;;;;;;;;;5070263;28;20458;-56
2023/05/09 11:59:10;;;;;;;5.22;4.63;;;;;;;;;;5070804;28;20396;-56
2023/05/09 12:01:36;;;;;;;6.43;4.80;;;;;;;;;;5070819;28;20403;-56
2023/05/09 12:04:02;;;;;;;5.15;4.68;;;;;;;;;;5070543;28;20404;-57
2023/05/09 12:06:29;;;;;;;5.07;4.60;;;;;;;;;;5070499;28;20878;-57
2023/05/09 12:08:58;;;;;;;5.30;4.80;;;;;;;;;;5070453;28;20754;-57
2023/05/09 12:11:24;;;;;;;7.60;4.75;;;;;;;;;;5070761;28;20469;-57
2023/05/09 12:13:51;;;;;;;7.78;4.90;;;;;;;;;;5070677;28;20414;-57
2023/05/09 12:16:20;;;;;;;5.50;4.55;;;;;;;;;;5070355;28;20415;-57
2023/05/09 12:18:47;;;;;;;4.90;4.50;;;;;;;;;;5070266;28;20491;-57
2023/05/09 12:21:13;;;;;;;5.00;4.50;;;;;;;;;;5070238;28;20924;-56
2023/05/09 12:23:39;;;;;;;5.22;4.35;;;;;;;;;;5070514;28;20414;-56
2023/05/09 12:26:05;;;;;;;5.38;4.45;;;;;;;;;;5070414;28;20392;-56
2023/05/09 12:28:32;;;;;;;5.07;4.32;;;;;;;;;;5070358;28;20490;-56
2023/05/09 12:30:58;;;;;;;5.53;4.13;;;;;;;;;;5070252;28;20392;-56
2023/05/09 12:33:26;;;;;;;6.30;4.57;;;;;;;;;;5068446;28;20461;-56
2023/05/09 12:36:02;;;;;;;4.70;4.30;;;;;;;;;;5065110;28;20486;-56
2023/05/09 12:38:28;;;;;;;4.38;3.97;;;;;;;;;;5070139;28;20510;-56
2023/05/09 12:40:59;;;;;;;5.28;4.53;;;;;;;;;;5069984;28;20449;-57
2023/05/09 12:43:25;;;;;;;5.50;4.30;;;;;;;;;;5066806;28;20506;-58
2023/05/09 12:45:52;;;;;;;5.47;4.40;;;;;;;;;;5069913;28;20399;-57
2023/05/09 12:48:17;;;;;;;5.60;4.07;;;;;;;;;;5070042;28;20411;-54
2023/05/09 12:50:47;;;;;;;5.80;4.38;;;;;;;;;;5070112;28;20448;-55
2023/05/09 12:53:22;;;;;;;5.30;4.40;;;;;;;;;;5069837;28;20427;-54
2023/05/09 12:55:48;;;;;;;4.82;4.43;;;;;;;;;;5069959;28;20486;-56
2023/05/09 12:58:14;;;;;;;4.72;4.32;;;;;;;;;;5069717;28;20495;-54
2023/05/09 13:00:41;;;;;;;4.88;4.38;;;;;;;;;;5069793;28;20449;-54
2023/05/09 13:03:19;;;;;;;4.70;4.30;;;;;;;;;;5070151;28;20469;-56
2023/05/09 13:05:55;;;;;;;5.95;4.80;;;;;;;;;;5069768;28;20431;-55
2023/05/09 13:08:21;;;;;;;5.68;4.25;;;;;;;;;;5072184;28;20456;-56
2023/05/09 13:10:47;;;;;;;7.00;4.53;;;;;;;;;;5073686;28;20727;-55
2023/05/09 13:13:15;;;;;;;4.90;4.50;;;;;;;;;;5073474;28;20986;-55
2023/05/09 13:15:41;;;;;;;6.72;4.43;;;;;;;;;;5073543;28;20411;-56
2023/05/09 13:18:06;;;;;;;5.10;4.30;;;;;;;;;;5073466;28;20407;-56
2023/05/09 13:20:32;;;;;;;4.47;4.00;;;;;;;;;;5073354;28;20461;-57
2023/05/09 13:23:00;;;;;;;6.05;4.18;;;;;;;;;;5072914;28;20450;-56
2023/05/09 13:25:26;;;;;;;9.25;4.57;;;;;;;;;;5073105;28;20457;-56
2023/05/09 13:27:52;;;;;;;6.25;4.20;;;;;;;;;;5073196;28;20861;-57
2023/05/09 13:30:18;;;;;;;4.82;3.95;;;;;;;;;;5073315;28;20400;-57
2023/05/09 13:32:46;;;;;;;4.72;4.22;;;;;;;;;;5072970;28;20395;-57
2023/05/09 13:35:12;;;;;;;4.43;3.97;;;;;;;;;;5072945;28;20400;-57
2023/05/09 13:37:38;;;;;;;4.60;4.10;;;;;;;;;;5073121;28;20484;-56
2023/05/09 13:40:06;;;;;;;5.25;3.67;;;;;;;;;;5073093;28;20388;-56
2023/05/09 13:42:33;;;;;;;5.15;3.95;;;;;;;;;;5073001;28;20416;-56
2023/05/09 13:44:59;;;;;;;4.55;4.00;;;;;;;;;;5073017;28;20411;-56
2023/05/09 13:47:25;;;;;;;5.70;3.83;;;;;;;;;;5072939;28;20431;-57
2023/05/09 13:49:51;;;;;;;5.15;3.75;;;;;;;;;;5072869;28;20427;-57
2023/05/09 13:52:17;;;;;;;6.03;3.83;;;;;;;;;;5072644;28;20491;-57
2023/05/09 13:54:43;;;;;;;6.22;3.90;;;;;;;;;;5072463;28;20933;-57
2023/05/09 13:57:11;;;;;;;4.63;3.75;;;;;;;;;;5072612;28;20498;-57
2023/05/09 13:59:39;;;;;;;4.15;3.80;;;;;;;;;;5072841;28;20769;-57
2023/05/09 14:02:06;;;;;;;4.10;3.70;;;;;;;;;;5072775;28;20408;-57
2023/05/09 14:04:32;;;;;;;4.95;3.60;;;;;;;;;;5072541;28;20423;-57
2023/05/09 14:06:59;;;;;;;6.13;3.63;;;;;;;;;;5072447;28;20403;-57
2023/05/09 14:09:25;;;;;;;4.95;3.75;;;;;;;;;;5072519;28;20494;-57
2023/05/09 14:11:51;;;;;;;4.70;3.75;;;;;;;;;;5072561;28;20469;-57
2023/05/09 14:14:19;;;;;;;4.28;3.80;;;;;;;;;;5072340;28;20412;-57
2023/05/09 14:16:45;;;;;;;3.83;3.45;;;;;;;;;;5072180;28;20422;-56
2023/05/09 14:19:13;;;;;;;4.13;3.80;;;;;;;;;;5071797;28;20475;-57
2023/05/09 14:21:40;;;;;;;5.00;3.95;;;;;;;;;;5072310;28;20403;-57
2023/05/09 14:24:06;;;;;;;4.47;4.07;;;;;;;;;;5072302;28;20476;-56
2023/05/09 14:26:32;;;;;;;4.40;3.60;;;;;;;;;;5072277;28;20758;-56
2023/05/09 14:28:58;;;;;;;4.22;3.78;;;;;;;;;;5072181;28;20395;-56
2023/05/09 14:31:26;;;;;;;5.28;3.70;;;;;;;;;;5072295;28;20411;-57
2023/05/09 14:33:52;;;;;;;4.10;3.60;;;;;;;;;;5072059;28;20404;-56
2023/05/09 14:36:18;;;;;;;4.80;3.83;;;;;;;;;;5071995;28;20404;-57
2023/05/09 14:38:45;;;;;;;4.28;3.88;;;;;;;;;;5072012;28;20395;-57
2023/05/09 14:41:11;;;;;;;4.63;3.70;;;;;;;;;;5071754;28;20739;-57